Vance, SC (29163)

7:10 PM EDT on September 03, 2015 (GMT -0400)
Santee-Cooper Resort | | Change Station
CLOSE
Current Station
Personal Weather Station
Location: Santee, SC
Elevation: 112 ft
Nearby Weather Stations

Elev 112 ft 33.50 °N, 80.46 °W | Updated 55 seconds ago

Partly Cloudy
Partly Cloudy
84.7 °F
Feels Like 90 °F
N
0.0
Wind Variable Wind from WSW

Today
High -- | Low -- °F
--% Chance of Precip.
Yesterday
High -- | Low -- °F
Precip. -- in
6:57 AM 7:44 PM
Waning Gibbous, 66% visible
Pressure 29.88 in
Visibility 7.0 miles
Clouds Clear
Heat Index 90 °F
Dew Point 71 °F
Humidity 63%
Rainfall 0.00 in
Snow Depth Not available.
UV 0 out of 12
Pollen 7.80 out of 12
Air Quality Not available.
Flu Activity Not available.
METAR KMNI 032255Z 00000KT 7SM CLR 30/21 A2988 RMK AO2 LTG DSNT E PWINO
Pressure 29.88 in
Visibility 7.0 miles
Clouds Clear
Heat Index 90 °F
Dew Point 71 °F
Humidity 63%
Rainfall 0.00 in
Snow Depth Not available.
UV 0 out of 12
Pollen 7.80 out of 12
Air Quality Not available.
Flu Activity Not available.
METAR KMNI 032255Z 00000KT 7SM CLR 30/21 A2988 RMK AO2 LTG DSNT E PWINO

10-Day Weather Forecast

×

Almanac

Astronomy

Sep. 03, 2015 Rise Set
Actual Time
Civil Twilight
Nautical Twilight
Astronomical Twilight
Moon
Length of Visible Light
Length of Day
Tomorrow will be .
, % of the Moon is Illuminated

Today's Extremes

State Highs State Lows

Community

WunderPhotos

Upload Photos

1,852,058 photos uploaded!

WunderBlogs® & News

Nearby

Air Quality

  Air Quality AQ Index Pollutant
Not available.

Snow Depth

Station Depth Elevation

Earthquake Activity

City Distance Mag. Time & Date
Minimum magnitude displayed is 2.5.

Coastal Water Temperatures

Place Temperature

Stations

Nearby Weather Stations

Station Location Temp. Windchill Dew Point Humidity Wind Precip. Elev Updated Type